Time;durP1;ratioP1;P1;durP2;ratioP2;P2;SDS_P1;SDS_P2;PMS_P1;PMS_P2;Temp;Humidity;BMP_temperature;BMP_pressure;BME280_temperature;BME280_humidity;BME280_pressure;Samples;Min_cycle;Max_cycle;Signal;HPM_P1;HPM_P2
2022/10/07 00:00:43;;;;;;;21.90;12.00;;;;;;;;;;745360;184;892270;-63
2022/10/07 00:03:09;;;;;;;13.40;11.87;;;;;;;;;;744425;187;918769;-64
2022/10/07 00:05:34;;;;;;;14.40;10.20;;;;;;;;;;739927;187;918389;-63
2022/10/07 00:08:00;;;;;;;18.07;11.87;;;;;;;;;;742750;184;918507;-69
2022/10/07 00:10:26;;;;;;;17.43;13.07;;;;;;;;;;741553;186;918327;-67
2022/10/07 00:12:52;;;;;;;16.20;12.02;;;;;;;;;;747972;187;918099;-67
2022/10/07 00:15:18;;;;;;;19.03;11.50;;;;;;;;;;741717;186;918807;-69
2022/10/07 00:17:44;;;;;;;13.67;10.77;;;;;;;;;;742111;187;919378;-64
2022/10/07 00:20:10;;;;;;;14.50;10.90;;;;;;;;;;746141;187;919267;-68
2022/10/07 00:22:35;;;;;;;19.17;11.70;;;;;;;;;;745163;187;919176;-64
2022/10/07 00:25:01;;;;;;;20.37;16.23;;;;;;;;;;742572;186;919508;-68
2022/10/07 00:27:27;;;;;;;42.93;30.20;;;;;;;;;;748141;186;918404;-63
2022/10/07 00:29:53;;;;;;;19.97;13.50;;;;;;;;;;741715;185;916263;-68
2022/10/07 00:32:19;;;;;;;18.20;12.00;;;;;;;;;;741739;187;917511;-64
2022/10/07 00:34:45;;;;;;;74.67;43.57;;;;;;;;;;746676;187;816681;-64
2022/10/07 00:37:10;;;;;;;40.27;24.30;;;;;;;;;;745981;188;814031;-67
2022/10/07 00:39:36;;;;;;;56.03;37.10;;;;;;;;;;737903;185;919530;-67
2022/10/07 00:42:02;;;;;;;28.27;20.10;;;;;;;;;;744101;186;919680;-67
2022/10/07 00:44:39;;;;;;;21.03;14.47;;;;;;;;;;748999;186;918181;-67
2022/10/07 00:47:13;;;;;;;16.93;13.53;;;;;;;;;;747449;186;920100;-69
2022/10/07 00:49:44;;;;;;;17.20;12.40;;;;;;;;;;740215;184;919023;-68
2022/10/07 00:52:10;;;;;;;22.13;15.93;;;;;;;;;;741904;185;919655;-69
2022/10/07 00:54:36;;;;;;;18.83;14.03;;;;;;;;;;741754;186;918032;-68
2022/10/07 00:57:02;;;;;;;18.03;11.97;;;;;;;;;;748161;186;919369;-68
2022/10/07 00:59:28;;;;;;;20.77;13.37;;;;;;;;;;742840;187;921635;-69
2022/10/07 01:01:54;;;;;;;20.77;12.98;;;;;;;;;;742624;187;920811;-68
2022/10/07 01:04:20;;;;;;;16.90;13.57;;;;;;;;;;747395;187;921838;-69
2022/10/07 01:06:45;;;;;;;21.10;13.85;;;;;;;;;;742459;186;921510;-68
2022/10/07 01:09:11;;;;;;;15.57;12.67;;;;;;;;;;742002;186;920184;-65
2022/10/07 01:11:54;;;;;;;15.43;12.93;;;;;;;;;;749635;187;816414;-65
2022/10/07 01:14:28;;;;;;;14.27;11.23;;;;;;;;;;748405;185;918276;-69
2022/10/07 01:17:01;;;;;;;19.00;13.70;;;;;;;;;;745909;185;905671;-64
2022/10/07 01:19:35;;;;;;;15.00;12.73;;;;;;;;;;744290;186;919543;-65
2022/10/07 01:22:04;;;;;;;15.90;12.13;;;;;;;;;;743370;187;918530;-66
2022/10/07 01:24:45;;;;;;;20.10;12.67;;;;;;;;;;743517;187;816571;-66
2022/10/07 01:27:13;;;;;;;18.13;12.90;;;;;;;;;;738662;187;936230;-68
2022/10/07 01:29:39;;;;;;;16.83;11.47;;;;;;;;;;747051;186;917938;-66
2022/10/07 01:32:09;;;;;;;15.45;13.20;;;;;;;;;;738330;187;918336;-65
2022/10/07 01:34:34;;;;;;;18.27;13.17;;;;;;;;;;740182;187;919342;-68
2022/10/07 01:37:01;;;;;;;18.77;13.30;;;;;;;;;;741729;186;919192;-68
2022/10/07 01:39:26;;;;;;;19.40;13.43;;;;;;;;;;747341;187;919308;-65
2022/10/07 01:41:52;;;;;;;16.27;13.80;;;;;;;;;;744942;187;923808;-66
2022/10/07 01:44:18;;;;;;;19.77;12.40;;;;;;;;;;742909;187;921939;-63
2022/10/07 01:46:46;;;;;;;18.87;12.40;;;;;;;;;;749620;186;911497;-67
2022/10/07 01:49:10;;;;;;;16.20;12.10;;;;;;;;;;746657;186;920891;-68
2022/10/07 01:51:36;;;;;;;15.37;11.57;;;;;;;;;;743606;187;921013;-66
2022/10/07 01:54:07;;;;;;;19.03;11.33;;;;;;;;;;749362;187;918177;-65
2022/10/07 01:56:34;;;;;;;17.50;10.70;;;;;;;;;;749225;186;815792;-68
2022/10/07 01:58:59;;;;;;;15.60;11.23;;;;;;;;;;743862;187;922038;-65
2022/10/07 02:01:25;;;;;;;17.30;11.23;;;;;;;;;;740948;183;816112;-65
2022/10/07 02:03:56;;;;;;;15.10;11.80;;;;;;;;;;749637;187;818813;-65
2022/10/07 02:06:24;;;;;;;19.27;11.67;;;;;;;;;;743145;187;816241;-66
2022/10/07 02:08:49;;;;;;;15.20;12.77;;;;;;;;;;744001;185;916814;-66
2022/10/07 02:11:18;;;;;;;17.55;13.60;;;;;;;;;;747620;185;816909;-66
2022/10/07 02:13:45;;;;;;;19.90;13.47;;;;;;;;;;751816;185;616618;-69
2022/10/07 02:16:11;;;;;;;21.07;13.10;;;;;;;;;;746588;185;629337;-65
2022/10/07 02:18:36;;;;;;;21.23;13.20;;;;;;;;;;742324;187;920894;-69
2022/10/07 02:21:02;;;;;;;22.33;15.53;;;;;;;;;;749632;186;815630;-66
2022/10/07 02:23:28;;;;;;;22.17;14.10;;;;;;;;;;744299;186;816365;-68
2022/10/07 02:25:54;;;;;;;21.43;12.83;;;;;;;;;;744000;185;939027;-68
2022/10/07 02:28:20;;;;;;;21.85;13.57;;;;;;;;;;736364;187;916852;-67
2022/10/07 02:30:46;;;;;;;19.80;14.87;;;;;;;;;;747453;186;916631;-66
2022/10/07 02:33:12;;;;;;;16.57;12.00;;;;;;;;;;741769;187;930746;-68
2022/10/07 02:35:39;;;;;;;28.10;15.93;;;;;;;;;;742382;187;918382;-66
2022/10/07 02:38:05;;;;;;;15.40;12.50;;;;;;;;;;747784;184;906099;-68
2022/10/07 02:40:32;;;;;;;19.23;13.90;;;;;;;;;;746121;185;815763;-67
2022/10/07 02:42:58;;;;;;;23.67;15.10;;;;;;;;;;742540;187;915958;-65
2022/10/07 02:45:25;;;;;;;21.23;13.33;;;;;;;;;;747056;187;918695;-68
2022/10/07 02:47:50;;;;;;;18.63;12.70;;;;;;;;;;742924;184;917864;-67
2022/10/07 02:50:17;;;;;;;17.30;12.35;;;;;;;;;;739207;187;918725;-66
2022/10/07 02:52:43;;;;;;;17.80;11.83;;;;;;;;;;741199;187;920247;-68
2022/10/07 02:55:10;;;;;;;15.53;12.47;;;;;;;;;;749648;186;915434;-65
2022/10/07 02:57:35;;;;;;;21.00;13.20;;;;;;;;;;748366;186;922656;-65
2022/10/07 03:00:01;;;;;;;128.13;99.33;;;;;;;;;;744145;185;886959;-69
2022/10/07 03:02:32;;;;;;;73.17;65.43;;;;;;;;;;748515;187;817358;-66
2022/10/07 03:04:58;;;;;;;29.20;25.23;;;;;;;;;;743419;187;816188;-67
2022/10/07 03:07:25;;;;;;;21.37;15.80;;;;;;;;;;742680;187;901425;-69
2022/10/07 03:09:50;;;;;;;17.70;14.50;;;;;;;;;;742227;186;918428;-67
2022/10/07 03:12:15;;;;;;;22.77;11.83;;;;;;;;;;748411;185;918800;-66
2022/10/07 03:14:43;;;;;;;20.83;12.80;;;;;;;;;;744497;186;917824;-67
2022/10/07 03:17:07;;;;;;;23.40;12.67;;;;;;;;;;742408;187;918832;-65
2022/10/07 03:19:33;;;;;;;21.35;11.25;;;;;;;;;;747516;187;918864;-66
2022/10/07 03:21:59;;;;;;;18.13;11.90;;;;;;;;;;741289;187;914443;-68
2022/10/07 03:24:25;;;;;;;17.80;11.43;;;;;;;;;;743696;185;919154;-65
2022/10/07 03:26:51;;;;;;;19.23;14.43;;;;;;;;;;744525;186;818770;-68
2022/10/07 03:29:17;;;;;;;19.07;12.20;;;;;;;;;;741828;187;918341;-65
2022/10/07 03:31:42;;;;;;;18.00;12.97;;;;;;;;;;741398;186;916093;-67
2022/10/07 03:34:09;;;;;;;55.27;45.77;;;;;;;;;;742026;187;918587;-66
2022/10/07 03:36:34;;;;;;;26.23;20.97;;;;;;;;;;749195;185;919226;-67
2022/10/07 03:39:00;;;;;;;20.10;15.03;;;;;;;;;;742439;187;917657;-67
2022/10/07 03:41:26;;;;;;;20.10;15.43;;;;;;;;;;742040;185;914769;-67
2022/10/07 03:43:51;;;;;;;38.90;23.10;;;;;;;;;;746878;187;919226;-63
2022/10/07 03:46:18;;;;;;;38.57;33.23;;;;;;;;;;743005;186;821646;-62
2022/10/07 03:48:44;;;;;;;28.30;18.10;;;;;;;;;;742562;187;817066;-64
2022/10/07 03:51:09;;;;;;;23.40;14.03;;;;;;;;;;748507;186;890568;-64
2022/10/07 03:53:35;;;;;;;28.60;23.53;;;;;;;;;;743602;186;916756;-63
2022/10/07 03:56:01;;;;;;;20.83;18.60;;;;;;;;;;745279;187;917554;-65
2022/10/07 03:58:28;;;;;;;18.60;14.40;;;;;;;;;;740782;187;917322;-65
2022/10/07 04:00:53;;;;;;;25.07;15.67;;;;;;;;;;748738;186;615063;-63
2022/10/07 04:03:19;;;;;;;23.33;16.27;;;;;;;;;;742794;185;819167;-63
2022/10/07 04:05:44;;;;;;;27.80;15.27;;;;;;;;;;743325;186;919220;-63
2022/10/07 04:08:10;;;;;;;24.60;16.83;;;;;;;;;;748493;187;916674;-65
2022/10/07 04:10:36;;;;;;;25.07;17.57;;;;;;;;;;750392;186;621896;-67
2022/10/07 04:13:02;;;;;;;21.33;16.07;;;;;;;;;;749430;186;626840;-65
2022/10/07 04:15:28;;;;;;;21.53;15.93;;;;;;;;;;748811;186;919437;-66
2022/10/07 04:17:57;;;;;;;18.87;14.13;;;;;;;;;;743505;187;916264;-66
2022/10/07 04:20:20;;;;;;;21.40;15.38;;;;;;;;;;743663;186;917517;-65
2022/10/07 04:22:45;;;;;;;23.87;17.37;;;;;;;;;;750108;186;819307;-64
2022/10/07 04:27:43;;;;;;;30.20;20.17;;;;;;;;;;742038;187;919205;-66
2022/10/07 04:30:10;;;;;;;24.70;18.17;;;;;;;;;;746169;187;816244;-66
2022/10/07 04:32:36;;;;;;;25.60;19.10;;;;;;;;;;749059;187;919020;-66
2022/10/07 04:35:02;;;;;;;22.80;17.13;;;;;;;;;;742169;187;918451;-67
2022/10/07 04:37:27;;;;;;;21.50;15.77;;;;;;;;;;747040;187;815998;-63
2022/10/07 04:39:53;;;;;;;28.30;17.57;;;;;;;;;;748714;185;822703;-63
2022/10/07 04:44:50;;;;;;;23.40;16.50;;;;;;;;;;742771;187;938566;-67
2022/10/07 04:47:16;;;;;;;23.70;18.15;;;;;;;;;;743630;187;919199;-63
2022/10/07 04:49:43;;;;;;;24.77;18.10;;;;;;;;;;746975;187;831326;-65
2022/10/07 04:52:09;;;;;;;23.53;18.70;;;;;;;;;;743440;185;918862;-66
2022/10/07 04:54:34;;;;;;;25.87;18.10;;;;;;;;;;742218;186;918744;-66
2022/10/07 04:57:00;;;;;;;25.17;17.48;;;;;;;;;;747031;187;919149;-66
2022/10/07 04:59:27;;;;;;;26.93;19.63;;;;;;;;;;744550;187;849038;-64
2022/10/07 05:01:52;;;;;;;25.00;18.33;;;;;;;;;;739825;187;917708;-63
2022/10/07 05:04:18;;;;;;;24.37;19.13;;;;;;;;;;740596;187;919374;-66
2022/10/07 05:06:44;;;;;;;32.47;18.43;;;;;;;;;;744846;187;920653;-67
2022/10/07 05:09:10;;;;;;;25.63;17.93;;;;;;;;;;743033;185;921220;-66
2022/10/07 05:11:36;;;;;;;22.70;16.10;;;;;;;;;;741332;187;918921;-66
2022/10/07 05:14:01;;;;;;;24.70;17.47;;;;;;;;;;747341;186;916155;-65
2022/10/07 05:16:27;;;;;;;27.00;19.40;;;;;;;;;;741279;187;920886;-66
2022/10/07 05:18:53;;;;;;;23.07;18.17;;;;;;;;;;744145;186;819140;-67
2022/10/07 05:21:19;;;;;;;27.50;17.50;;;;;;;;;;747264;186;914980;-67
2022/10/07 05:23:45;;;;;;;28.50;17.70;;;;;;;;;;747969;185;820587;-64
2022/10/07 05:26:13;;;;;;;33.90;17.50;;;;;;;;;;746430;187;914333;-65
2022/10/07 05:28:38;;;;;;;25.93;18.70;;;;;;;;;;739766;186;919599;-65
2022/10/07 05:31:02;;;;;;;24.13;17.37;;;;;;;;;;748945;186;916494;-66
2022/10/07 05:33:30;;;;;;;27.57;16.13;;;;;;;;;;737799;187;920040;-65
2022/10/07 05:35:54;;;;;;;26.10;18.13;;;;;;;;;;737358;187;917552;-66
2022/10/07 05:38:20;;;;;;;18.63;15.87;;;;;;;;;;744896;187;919257;-64
2022/10/07 05:40:46;;;;;;;29.30;20.43;;;;;;;;;;740706;187;917965;-65
2022/10/07 05:43:12;;;;;;;26.67;19.13;;;;;;;;;;741194;187;922483;-65
2022/10/07 05:45:38;;;;;;;30.80;21.73;;;;;;;;;;748358;187;921620;-64
2022/10/07 05:48:04;;;;;;;27.20;19.37;;;;;;;;;;743678;187;917902;-66
2022/10/07 05:50:29;;;;;;;35.70;24.30;;;;;;;;;;744605;187;918394;-64
2022/10/07 05:52:55;;;;;;;65.70;36.10;;;;;;;;;;749920;187;918693;-65
2022/10/07 05:55:21;;;;;;;44.33;28.50;;;;;;;;;;741758;185;919371;-63
2022/10/07 05:57:47;;;;;;;26.93;18.93;;;;;;;;;;742572;187;918383;-64
2022/10/07 06:00:13;;;;;;;26.23;17.27;;;;;;;;;;742719;186;917277;-65
2022/10/07 06:02:39;;;;;;;26.63;18.90;;;;;;;;;;748354;185;811950;-63
2022/10/07 06:05:05;;;;;;;24.30;17.03;;;;;;;;;;741461;185;913622;-64
2022/10/07 06:07:31;;;;;;;32.77;22.57;;;;;;;;;;739523;187;919395;-63
2022/10/07 06:15:00;;;;;;;25.47;17.67;;;;;;;;;;738847;187;918978;-65
2022/10/07 06:17:26;;;;;;;30.42;19.08;;;;;;;;;;742350;187;918956;-63
2022/10/07 06:19:52;;;;;;;25.90;16.80;;;;;;;;;;746196;187;921207;-68
2022/10/07 06:22:18;;;;;;;26.33;17.10;;;;;;;;;;739762;187;920732;-67
2022/10/07 06:24:44;;;;;;;28.00;17.30;;;;;;;;;;741648;187;919290;-65
2022/10/07 06:27:09;;;;;;;25.47;18.40;;;;;;;;;;747440;186;921339;-68
2022/10/07 06:29:35;;;;;;;28.70;18.40;;;;;;;;;;742732;186;818739;-66
2022/10/07 06:32:01;;;;;;;29.53;17.73;;;;;;;;;;741291;186;919561;-65
2022/10/07 06:34:27;;;;;;;25.00;16.83;;;;;;;;;;745563;185;894308;-67
2022/10/07 06:36:53;;;;;;;26.60;17.40;;;;;;;;;;755803;185;917087;-67
2022/10/07 06:39:19;;;;;;;33.73;16.60;;;;;;;;;;747415;186;817752;-66
2022/10/07 06:41:45;;;;;;;25.40;16.07;;;;;;;;;;743232;187;919890;-64
2022/10/07 06:44:10;;;;;;;25.20;16.93;;;;;;;;;;747868;186;918659;-64
2022/10/07 06:46:36;;;;;;;24.77;15.50;;;;;;;;;;742406;186;921084;-64
2022/10/07 06:49:02;;;;;;;20.30;15.47;;;;;;;;;;743157;187;918998;-63
2022/10/07 06:51:28;;;;;;;23.95;16.12;;;;;;;;;;749129;186;919506;-64
2022/10/07 06:53:56;;;;;;;25.57;16.33;;;;;;;;;;741071;187;920408;-63
2022/10/07 06:56:20;;;;;;;21.17;16.20;;;;;;;;;;741249;187;916979;-63
2022/10/07 06:58:47;;;;;;;26.53;18.10;;;;;;;;;;742760;186;924888;-67
2022/10/07 07:01:11;;;;;;;24.80;15.90;;;;;;;;;;737229;190;817554;-64
2022/10/07 07:03:37;;;;;;;30.33;18.07;;;;;;;;;;748197;185;817839;-63
2022/10/07 07:06:03;;;;;;;24.23;17.10;;;;;;;;;;748946;187;921760;-68
2022/10/07 07:08:31;;;;;;;23.53;16.90;;;;;;;;;;745161;184;914511;-63
2022/10/07 07:10:55;;;;;;;21.43;16.73;;;;;;;;;;741798;187;918208;-68
2022/10/07 07:13:21;;;;;;;24.00;15.90;;;;;;;;;;743262;187;919433;-68
2022/10/07 07:15:54;;;;;;;27.97;18.07;;;;;;;;;;749581;187;919031;-64
2022/10/07 07:18:20;;;;;;;26.53;17.03;;;;;;;;;;747286;186;918025;-69
2022/10/07 07:20:46;;;;;;;32.67;19.60;;;;;;;;;;742259;187;912554;-67
2022/10/07 07:23:11;;;;;;;28.80;18.60;;;;;;;;;;745008;187;816691;-67
2022/10/07 07:25:37;;;;;;;26.13;17.40;;;;;;;;;;752172;187;635086;-62
2022/10/07 07:28:03;;;;;;;27.07;19.70;;;;;;;;;;745848;185;919059;-67
2022/10/07 07:30:29;;;;;;;25.10;18.67;;;;;;;;;;749142;187;630094;-67
2022/10/07 07:32:55;;;;;;;42.93;18.60;;;;;;;;;;749420;184;619729;-63
2022/10/07 07:35:21;;;;;;;28.67;17.27;;;;;;;;;;740065;185;938708;-67
2022/10/07 07:37:47;;;;;;;30.40;19.43;;;;;;;;;;742310;187;814085;-67
2022/10/07 07:40:13;;;;;;;31.55;20.90;;;;;;;;;;744675;185;916486;-66
2022/10/07 07:42:39;;;;;;;27.03;19.60;;;;;;;;;;748155;185;915820;-67
2022/10/07 07:45:05;;;;;;;25.93;19.17;;;;;;;;;;746973;185;878507;-67
2022/10/07 07:47:31;;;;;;;28.70;18.83;;;;;;;;;;743879;186;918132;-66
2022/10/07 07:49:57;;;;;;;35.00;21.20;;;;;;;;;;750375;187;820997;-67
2022/10/07 07:52:24;;;;;;;33.73;21.40;;;;;;;;;;743580;187;919084;-67
2022/10/07 07:54:50;;;;;;;30.27;18.33;;;;;;;;;;742994;187;918760;-62
2022/10/07 07:57:14;;;;;;;29.70;20.70;;;;;;;;;;748977;187;919929;-68
2022/10/07 07:59:40;;;;;;;28.37;20.50;;;;;;;;;;741452;187;918220;-63
2022/10/07 08:02:06;;;;;;;29.97;21.33;;;;;;;;;;741244;187;919282;-67
2022/10/07 08:04:32;;;;;;;30.65;19.77;;;;;;;;;;747111;187;918972;-68
2022/10/07 08:06:58;;;;;;;31.43;20.87;;;;;;;;;;740130;187;817138;-67
2022/10/07 08:09:23;;;;;;;25.03;17.77;;;;;;;;;;745405;186;918647;-62
2022/10/07 08:11:49;;;;;;;25.93;17.60;;;;;;;;;;741795;187;881238;-62
2022/10/07 08:14:16;;;;;;;32.60;20.17;;;;;;;;;;748673;187;1015539;-63
2022/10/07 08:16:42;;;;;;;27.67;19.93;;;;;;;;;;743980;187;918530;-63
2022/10/07 08:19:08;;;;;;;28.33;18.53;;;;;;;;;;747497;187;623138;-67
2022/10/07 08:21:33;;;;;;;30.10;18.57;;;;;;;;;;749217;187;630061;-63
2022/10/07 08:23:59;;;;;;;23.17;18.10;;;;;;;;;;742754;187;916502;-62
2022/10/07 08:26:24;;;;;;;31.50;20.67;;;;;;;;;;746740;187;815437;-63
2022/10/07 08:28:50;;;;;;;32.70;19.57;;;;;;;;;;749799;187;915167;-63
2022/10/07 08:31:16;;;;;;;28.43;17.63;;;;;;;;;;739760;187;918235;-62
2022/10/07 08:33:43;;;;;;;33.87;18.77;;;;;;;;;;741317;186;918494;-61
2022/10/07 08:36:08;;;;;;;26.80;19.97;;;;;;;;;;744559;186;921660;-62
2022/10/07 08:38:34;;;;;;;33.20;20.20;;;;;;;;;;736415;188;914785;-68
2022/10/07 08:41:00;;;;;;;33.53;18.17;;;;;;;;;;743451;186;918497;-66
2022/10/07 08:43:26;;;;;;;25.20;18.60;;;;;;;;;;741964;186;919069;-60
2022/10/07 08:45:54;;;;;;;23.70;16.40;;;;;;;;;;745331;187;915816;-67
2022/10/07 08:48:18;;;;;;;24.60;16.47;;;;;;;;;;742603;184;919160;-62
2022/10/07 08:50:44;;;;;;;22.80;16.60;;;;;;;;;;740975;185;918469;-67
2022/10/07 08:53:10;;;;;;;27.53;16.10;;;;;;;;;;746283;186;917582;-61
2022/10/07 08:55:51;;;;;;;26.73;16.97;;;;;;;;;;748140;184;911813;-61
2022/10/07 08:58:23;;;;;;;24.33;16.80;;;;;;;;;;741357;185;919276;-68
2022/10/07 09:00:53;;;;;;;23.43;15.97;;;;;;;;;;742323;186;919112;-62
2022/10/07 09:03:22;;;;;;;24.10;16.23;;;;;;;;;;740246;186;918609;-69
2022/10/07 09:05:48;;;;;;;24.80;15.40;;;;;;;;;;746985;187;939090;-68
2022/10/07 09:08:28;;;;;;;23.10;16.20;;;;;;;;;;744484;187;920429;-62
2022/10/07 09:10:54;;;;;;;21.03;13.50;;;;;;;;;;742386;186;919078;-61
2022/10/07 09:13:20;;;;;;;22.00;14.83;;;;;;;;;;744744;187;918660;-69
2022/10/07 09:15:48;;;;;;;21.20;15.60;;;;;;;;;;748218;187;921353;-69
2022/10/07 09:18:14;;;;;;;21.37;13.70;;;;;;;;;;746084;187;918174;-64
2022/10/07 09:20:41;;;;;;;18.10;13.00;;;;;;;;;;741492;185;917726;-69
2022/10/07 09:23:06;;;;;;;21.87;13.57;;;;;;;;;;740408;186;919174;-69
2022/10/07 09:25:33;;;;;;;15.50;11.87;;;;;;;;;;747376;187;922510;-70
2022/10/07 09:27:58;;;;;;;18.13;12.33;;;;;;;;;;746341;186;817145;-69
2022/10/07 09:30:24;;;;;;;25.30;12.00;;;;;;;;;;743727;187;826669;-62
2022/10/07 09:32:49;;;;;;;15.57;11.47;;;;;;;;;;747584;185;827626;-62
2022/10/07 09:35:16;;;;;;;16.30;10.67;;;;;;;;;;741705;187;912085;-62
2022/10/07 09:37:57;;;;;;;21.27;11.37;;;;;;;;;;742674;185;918378;-69
2022/10/07 09:40:29;;;;;;;14.83;10.27;;;;;;;;;;741197;185;911388;-61
2022/10/07 09:42:55;;;;;;;19.33;9.30;;;;;;;;;;743350;185;909273;-70
2022/10/07 09:45:21;;;;;;;12.97;9.97;;;;;;;;;;747705;187;911407;-61
2022/10/07 09:47:51;;;;;;;13.03;9.40;;;;;;;;;;745682;187;849481;-62
2022/10/07 09:50:22;;;;;;;15.20;10.40;;;;;;;;;;742145;186;922311;-60
2022/10/07 09:52:47;;;;;;;13.53;10.07;;;;;;;;;;742257;187;918047;-63
2022/10/07 09:55:19;;;;;;;11.43;9.37;;;;;;;;;;746234;186;917944;-71
2022/10/07 09:57:45;;;;;;;12.40;7.90;;;;;;;;;;742417;185;918373;-69
2022/10/07 10:00:26;;;;;;;11.13;8.77;;;;;;;;;;741646;186;921458;-61
2022/10/07 10:02:53;;;;;;;10.43;7.47;;;;;;;;;;744431;186;918755;-62
2022/10/07 10:05:22;;;;;;;13.77;8.47;;;;;;;;;;747540;187;919287;-70
2022/10/07 10:07:47;;;;;;;9.70;7.37;;;;;;;;;;747686;187;917595;-62
2022/10/07 10:10:17;;;;;;;8.83;7.67;;;;;;;;;;743517;186;918759;-71
2022/10/07 10:12:45;;;;;;;13.70;10.07;;;;;;;;;;744048;186;920650;-70
2022/10/07 10:15:16;;;;;;;11.50;7.60;;;;;;;;;;749059;187;815212;-69
2022/10/07 10:17:41;;;;;;;10.57;6.43;;;;;;;;;;742958;187;918244;-71
2022/10/07 10:20:13;;;;;;;13.95;7.72;;;;;;;;;;743100;187;817029;-72
2022/10/07 10:22:39;;;;;;;7.30;5.57;;;;;;;;;;743250;186;917304;-70
2022/10/07 10:27:51;;;;;;;9.20;6.60;;;;;;;;;;742658;186;916590;-62
2022/10/07 10:30:18;;;;;;;6.97;6.27;;;;;;;;;;747126;185;918918;-71
2022/10/07 10:32:50;;;;;;;8.90;6.47;;;;;;;;;;742293;187;918156;-71
2022/10/07 10:35:23;;;;;;;9.27;6.47;;;;;;;;;;740040;186;918815;-71
2022/10/07 10:37:50;;;;;;;10.90;7.30;;;;;;;;;;743577;187;819954;-69
2022/10/07 10:40:17;;;;;;;13.10;6.53;;;;;;;;;;741692;186;918902;-71
2022/10/07 10:43:00;;;;;;;8.37;6.90;;;;;;;;;;747087;186;634122;-61
2022/10/07 10:45:32;;;;;;;13.60;5.87;;;;;;;;;;741918;187;823891;-72
2022/10/07 10:48:04;;;;;;;8.40;7.07;;;;;;;;;;741881;187;814759;-71
2022/10/07 10:50:30;;;;;;;9.70;6.77;;;;;;;;;;742825;186;915965;-72
2022/10/07 10:53:15;;;;;;;7.47;6.40;;;;;;;;;;745930;187;918113;-72
2022/10/07 10:55:41;;;;;;;14.57;6.40;;;;;;;;;;749922;186;851889;-61
2022/10/07 10:58:07;;;;;;;12.27;6.13;;;;;;;;;;740028;187;919279;-61
2022/10/07 11:00:34;;;;;;;10.20;7.23;;;;;;;;;;740874;187;915858;-65
2022/10/07 11:03:06;;;;;;;9.13;7.10;;;;;;;;;;746912;187;918259;-62
2022/10/07 11:05:34;;;;;;;10.40;7.23;;;;;;;;;;750084;185;918914;-72
2022/10/07 11:08:00;;;;;;;9.93;6.80;;;;;;;;;;745957;187;815894;-61
2022/10/07 11:10:40;;;;;;;12.70;7.27;;;;;;;;;;740803;186;921918;-62
2022/10/07 11:13:14;;;;;;;9.57;7.13;;;;;;;;;;738262;187;918686;-72
2022/10/07 11:15:42;;;;;;;10.40;6.67;;;;;;;;;;745564;187;937211;-62
2022/10/07 11:18:07;;;;;;;7.67;5.90;;;;;;;;;;751900;186;817785;-61
2022/10/07 11:20:33;;;;;;;10.30;6.87;;;;;;;;;;743217;185;923675;-62
2022/10/07 11:23:00;;;;;;;8.77;5.90;;;;;;;;;;742926;186;938415;-72
2022/10/07 11:25:27;;;;;;;7.03;5.90;;;;;;;;;;746986;187;918643;-72
2022/10/07 11:27:52;;;;;;;11.47;6.37;;;;;;;;;;741855;187;920947;-73
2022/10/07 11:30:19;;;;;;;6.80;4.93;;;;;;;;;;743800;187;921371;-72
2022/10/07 11:32:48;;;;;;;7.50;5.00;;;;;;;;;;748935;187;911630;-62
2022/10/07 11:35:31;;;;;;;7.20;4.43;;;;;;;;;;741627;187;919009;-74
2022/10/07 11:37:57;;;;;;;6.87;4.10;;;;;;;;;;751209;186;918564;-62
2022/10/07 11:40:24;;;;;;;5.73;3.10;;;;;;;;;;741056;187;816818;-62
2022/10/07 11:42:49;;;;;;;5.43;3.50;;;;;;;;;;741868;187;818869;-62
2022/10/07 11:45:15;;;;;;;11.00;3.77;;;;;;;;;;747525;187;816642;-74
2022/10/07 11:47:41;;;;;;;4.20;2.57;;;;;;;;;;744993;187;816670;-63
2022/10/07 11:50:12;;;;;;;9.97;3.10;;;;;;;;;;744947;186;918760;-71
2022/10/07 11:52:39;;;;;;;6.90;3.67;;;;;;;;;;753352;186;918306;-64
2022/10/07 11:55:05;;;;;;;7.93;3.43;;;;;;;;;;747138;187;921033;-72
2022/10/07 11:57:31;;;;;;;4.40;3.10;;;;;;;;;;745338;187;919186;-72
2022/10/07 11:59:57;;;;;;;5.43;3.30;;;;;;;;;;743790;186;840479;-64
2022/10/07 12:02:36;;;;;;;4.23;3.53;;;;;;;;;;748051;187;816802;-73
2022/10/07 12:05:01;;;;;;;6.97;3.20;;;;;;;;;;755204;185;915292;-72
2022/10/07 12:07:34;;;;;;;6.10;2.90;;;;;;;;;;740053;185;905522;-63
2022/10/07 12:10:12;;;;;;;5.47;3.27;;;;;;;;;;744762;187;800521;-64
2022/10/07 12:12:50;;;;;;;4.20;2.90;;;;;;;;;;742478;187;855328;-61
2022/10/07 12:15:21;;;;;;;6.80;3.70;;;;;;;;;;744603;186;811940;-71
2022/10/07 12:17:53;;;;;;;3.10;2.60;;;;;;;;;;748688;186;818295;-71
2022/10/07 12:20:43;;;;;;;9.38;4.30;;;;;;;;;;749714;187;916442;-71
2022/10/07 12:23:13;;;;;;;4.50;3.30;;;;;;;;;;751452;186;924231;-62
2022/10/07 12:25:41;;;;;;;4.23;3.10;;;;;;;;;;739962;185;918435;-64
2022/10/07 12:28:07;;;;;;;3.80;3.10;;;;;;;;;;741075;187;918366;-64
2022/10/07 12:30:35;;;;;;;5.47;3.73;;;;;;;;;;743982;185;921477;-63
2022/10/07 12:33:01;;;;;;;8.63;3.43;;;;;;;;;;748457;186;819044;-63
2022/10/07 12:35:36;;;;;;;5.50;3.53;;;;;;;;;;746065;185;817606;-65
2022/10/07 12:38:08;;;;;;;8.53;3.20;;;;;;;;;;743225;187;919095;-64
2022/10/07 12:40:34;;;;;;;7.37;3.10;;;;;;;;;;742878;187;933106;-66
2022/10/07 12:42:59;;;;;;;6.80;3.40;;;;;;;;;;749803;187;917265;-67
2022/10/07 12:45:25;;;;;;;7.33;3.50;;;;;;;;;;744347;186;919851;-67
2022/10/07 12:47:51;;;;;;;4.00;3.30;;;;;;;;;;744604;187;921140;-67
2022/10/07 12:50:17;;;;;;;4.80;3.60;;;;;;;;;;747994;187;816057;-68
2022/10/07 12:52:51;;;;;;;9.00;4.60;;;;;;;;;;746862;187;917064;-65
2022/10/07 12:55:18;;;;;;;6.07;3.20;;;;;;;;;;741635;186;898779;-63
2022/10/07 12:57:44;;;;;;;4.93;3.40;;;;;;;;;;740725;187;915341;-63
2022/10/07 13:00:11;;;;;;;3.83;2.93;;;;;;;;;;745926;187;919581;-64
2022/10/07 13:02:43;;;;;;;7.57;3.45;;;;;;;;;;738514;187;916874;-64
2022/10/07 13:05:15;;;;;;;6.80;3.60;;;;;;;;;;741719;187;920747;-63
2022/10/07 13:07:42;;;;;;;6.90;3.70;;;;;;;;;;740351;187;920627;-63
2022/10/07 13:10:22;;;;;;;4.57;3.50;;;;;;;;;;747996;185;914864;-61
2022/10/07 13:12:49;;;;;;;8.43;3.87;;;;;;;;;;750911;187;918601;-62
2022/10/07 13:15:15;;;;;;;4.43;3.40;;;;;;;;;;744961;187;919958;-61
2022/10/07 13:17:40;;;;;;;5.87;4.60;;;;;;;;;;742465;186;919923;-62
2022/10/07 13:20:08;;;;;;;5.43;3.60;;;;;;;;;;740438;185;924622;-61
2022/10/07 13:22:34;;;;;;;6.47;3.40;;;;;;;;;;744599;186;821099;-62
2022/10/07 13:25:00;;;;;;;6.10;3.57;;;;;;;;;;737869;183;917829;-60
2022/10/07 13:27:26;;;;;;;5.80;3.10;;;;;;;;;;742323;186;916753;-61
2022/10/07 13:29:52;;;;;;;5.43;3.90;;;;;;;;;;745837;186;912953;-59
2022/10/07 13:32:17;;;;;;;4.00;3.10;;;;;;;;;;744951;187;815505;-63
2022/10/07 13:34:45;;;;;;;6.50;3.77;;;;;;;;;;743857;185;916586;-63
2022/10/07 13:37:15;;;;;;;4.00;3.30;;;;;;;;;;749030;186;925127;-56
2022/10/07 13:39:41;;;;;;;10.00;4.17;;;;;;;;;;750773;186;919042;-63
2022/10/07 13:42:08;;;;;;;6.50;4.87;;;;;;;;;;743415;186;846245;-59
2022/10/07 13:44:32;;;;;;;5.97;4.03;;;;;;;;;;743725;186;916960;-60
2022/10/07 13:47:01;;;;;;;4.93;3.50;;;;;;;;;;749267;187;814663;-59
2022/10/07 13:49:28;;;;;;;8.97;4.20;;;;;;;;;;742137;184;911025;-58
2022/10/07 13:51:55;;;;;;;19.53;4.40;;;;;;;;;;742954;187;909755;-58
2022/10/07 13:54:20;;;;;;;5.83;3.63;;;;;;;;;;744196;185;917673;-61
2022/10/07 13:56:47;;;;;;;4.50;3.60;;;;;;;;;;742515;187;916876;-61
2022/10/07 13:59:14;;;;;;;8.97;4.17;;;;;;;;;;742225;187;910674;-61
2022/10/07 14:01:38;;;;;;;5.57;3.40;;;;;;;;;;741801;187;916374;-61
2022/10/07 14:04:08;;;;;;;8.50;3.27;;;;;;;;;;746404;185;915680;-61
2022/10/07 14:06:38;;;;;;;5.87;3.60;;;;;;;;;;742829;187;920280;-61
2022/10/07 14:09:04;;;;;;;4.20;3.53;;;;;;;;;;744043;185;925883;-61
2022/10/07 14:11:30;;;;;;;4.23;3.73;;;;;;;;;;742002;187;820882;-61
2022/10/07 14:13:58;;;;;;;8.23;3.40;;;;;;;;;;749453;187;826071;-59
2022/10/07 14:16:22;;;;;;;5.50;3.80;;;;;;;;;;743054;186;917199;-62
2022/10/07 14:18:48;;;;;;;4.67;3.90;;;;;;;;;;741970;187;910815;-61
2022/10/07 14:21:16;;;;;;;7.70;3.87;;;;;;;;;;746599;186;810014;-59
2022/10/07 14:23:39;;;;;;;6.47;3.80;;;;;;;;;;740606;185;930998;-59